sensor_id;sensor_type;location;lat;lon;timestamp;pressure;altitude;pressure_sealevel;temperature
20103;BMP180;10210;52.284;9.892;2023-06-26T00:01:17;100464.00;;;29.40
20103;BMP180;10210;52.284;9.892;2023-06-26T00:03:46;100464.00;;;29.30
20103;BMP180;10210;52.284;9.892;2023-06-26T00:06:13;100467.00;;;29.20
20103;BMP180;10210;52.284;9.892;2023-06-26T00:08:39;100457.00;;;29.20
20103;BMP180;10210;52.284;9.892;2023-06-26T00:11:04;100455.00;;;29.10
20103;BMP180;10210;52.284;9.892;2023-06-26T00:13:30;100461.00;;;29.00
20103;BMP180;10210;52.284;9.892;2023-06-26T00:15:56;100448.00;;;29.00
20103;BMP180;10210;52.284;9.892;2023-06-26T00:18:22;100456.00;;;28.90
20103;BMP180;10210;52.284;9.892;2023-06-26T00:20:49;100451.00;;;28.90
20103;BMP180;10210;52.284;9.892;2023-06-26T00:23:16;100441.00;;;28.80
20103;BMP180;10210;52.284;9.892;2023-06-26T00:25:43;100445.00;;;28.80
20103;BMP180;10210;52.284;9.892;2023-06-26T00:28:09;100441.00;;;28.80
20103;BMP180;10210;52.284;9.892;2023-06-26T00:30:35;100436.00;;;28.70
20103;BMP180;10210;52.284;9.892;2023-06-26T00:33:01;100437.00;;;28.70
20103;BMP180;10210;52.284;9.892;2023-06-26T00:35:27;100438.00;;;28.60
20103;BMP180;10210;52.284;9.892;2023-06-26T00:37:53;100452.00;;;28.60
20103;BMP180;10210;52.284;9.892;2023-06-26T00:40:18;100448.00;;;28.60
20103;BMP180;10210;52.284;9.892;2023-06-26T00:42:44;100447.00;;;28.60
20103;BMP180;10210;52.284;9.892;2023-06-26T00:45:10;100446.00;;;28.50
20103;BMP180;10210;52.284;9.892;2023-06-26T00:47:37;100441.00;;;28.50
20103;BMP180;10210;52.284;9.892;2023-06-26T00:50:04;100438.00;;;28.50
20103;BMP180;10210;52.284;9.892;2023-06-26T00:52:31;100442.00;;;28.50
20103;BMP180;10210;52.284;9.892;2023-06-26T00:54:57;100432.00;;;28.60
20103;BMP180;10210;52.284;9.892;2023-06-26T00:57:23;100438.00;;;28.60
20103;BMP180;10210;52.284;9.892;2023-06-26T00:59:50;100428.00;;;28.70
20103;BMP180;10210;52.284;9.892;2023-06-26T01:02:16;100426.00;;;28.70
20103;BMP180;10210;52.284;9.892;2023-06-26T01:04:54;100420.00;;;28.70
20103;BMP180;10210;52.284;9.892;2023-06-26T01:07:22;100420.00;;;28.70
20103;BMP180;10210;52.284;9.892;2023-06-26T01:09:49;100423.00;;;28.70
20103;BMP180;10210;52.284;9.892;2023-06-26T01:12:15;100417.00;;;28.60
20103;BMP180;10210;52.284;9.892;2023-06-26T01:14:41;100417.00;;;28.60
20103;BMP180;10210;52.284;9.892;2023-06-26T01:17:09;100414.00;;;28.60
20103;BMP180;10210;52.284;9.892;2023-06-26T01:19:37;100421.00;;;28.60
20103;BMP180;10210;52.284;9.892;2023-06-26T01:25:20;100415.00;;;28.40
20103;BMP180;10210;52.284;9.892;2023-06-26T01:27:50;100410.00;;;28.40
20103;BMP180;10210;52.284;9.892;2023-06-26T01:30:16;100405.00;;;28.40
20103;BMP180;10210;52.284;9.892;2023-06-26T01:32:44;100401.00;;;28.30
20103;BMP180;10210;52.284;9.892;2023-06-26T01:35:11;100393.00;;;28.30
20103;BMP180;10210;52.284;9.892;2023-06-26T01:37:37;100399.00;;;28.20
20103;BMP180;10210;52.284;9.892;2023-06-26T01:40:03;100396.00;;;28.20
20103;BMP180;10210;52.284;9.892;2023-06-26T01:42:33;100388.00;;;28.20
20103;BMP180;10210;52.284;9.892;2023-06-26T01:45:07;100389.00;;;28.10
20103;BMP180;10210;52.284;9.892;2023-06-26T01:47:40;100388.00;;;28.10
20103;BMP180;10210;52.284;9.892;2023-06-26T01:50:18;100380.00;;;28.00
20103;BMP180;10210;52.284;9.892;2023-06-26T01:53:02;100382.00;;;28.00
20103;BMP180;10210;52.284;9.892;2023-06-26T01:55:40;100384.00;;;27.90
20103;BMP180;10210;52.284;9.892;2023-06-26T01:58:09;100379.00;;;27.90
20103;BMP180;10210;52.284;9.892;2023-06-26T02:00:35;100380.00;;;27.80
20103;BMP180;10210;52.284;9.892;2023-06-26T02:03:02;100377.00;;;27.80
20103;BMP180;10210;52.284;9.892;2023-06-26T02:05:28;100371.00;;;27.70
20103;BMP180;10210;52.284;9.892;2023-06-26T02:07:56;100374.00;;;27.70
20103;BMP180;10210;52.284;9.892;2023-06-26T02:10:22;100363.00;;;27.60
20103;BMP180;10210;52.284;9.892;2023-06-26T02:12:47;100363.00;;;27.60
20103;BMP180;10210;52.284;9.892;2023-06-26T02:15:13;100354.00;;;27.60
20103;BMP180;10210;52.284;9.892;2023-06-26T02:17:39;100348.00;;;27.60
20103;BMP180;10210;52.284;9.892;2023-06-26T02:20:05;100348.00;;;27.50
20103;BMP180;10210;52.284;9.892;2023-06-26T02:22:31;100353.00;;;27.50
20103;BMP180;10210;52.284;9.892;2023-06-26T02:24:57;100358.00;;;27.40
20103;BMP180;10210;52.284;9.892;2023-06-26T02:27:23;100344.00;;;27.40
20103;BMP180;10210;52.284;9.892;2023-06-26T02:29:48;100363.00;;;27.40
20103;BMP180;10210;52.284;9.892;2023-06-26T02:32:14;100359.00;;;27.30
20103;BMP180;10210;52.284;9.892;2023-06-26T02:34:40;100352.00;;;27.40
20103;BMP180;10210;52.284;9.892;2023-06-26T02:37:05;100346.00;;;27.40
20103;BMP180;10210;52.284;9.892;2023-06-26T02:39:33;100353.00;;;27.40
20103;BMP180;10210;52.284;9.892;2023-06-26T02:42:00;100345.00;;;27.50
20103;BMP180;10210;52.284;9.892;2023-06-26T02:44:25;100346.00;;;27.40
20103;BMP180;10210;52.284;9.892;2023-06-26T02:46:51;100339.00;;;27.40
20103;BMP180;10210;52.284;9.892;2023-06-26T02:49:17;100338.00;;;27.30
20103;BMP180;10210;52.284;9.892;2023-06-26T02:51:43;100343.00;;;27.30
20103;BMP180;10210;52.284;9.892;2023-06-26T02:54:08;100332.00;;;27.30
20103;BMP180;10210;52.284;9.892;2023-06-26T02:56:34;100335.00;;;27.30
20103;BMP180;10210;52.284;9.892;2023-06-26T02:58:59;100326.00;;;27.30
20103;BMP180;10210;52.284;9.892;2023-06-26T03:01:25;100318.00;;;27.30
20103;BMP180;10210;52.284;9.892;2023-06-26T03:03:51;100324.00;;;27.20
20103;BMP180;10210;52.284;9.892;2023-06-26T03:06:18;100315.00;;;27.20
20103;BMP180;10210;52.284;9.892;2023-06-26T03:08:44;100322.00;;;27.20
20103;BMP180;10210;52.284;9.892;2023-06-26T03:11:09;100315.00;;;27.20
20103;BMP180;10210;52.284;9.892;2023-06-26T03:13:36;100318.00;;;27.20
20103;BMP180;10210;52.284;9.892;2023-06-26T03:16:03;100309.00;;;27.20
20103;BMP180;10210;52.284;9.892;2023-06-26T03:18:29;100310.00;;;27.20
20103;BMP180;10210;52.284;9.892;2023-06-26T03:20:57;100310.00;;;27.20
20103;BMP180;10210;52.284;9.892;2023-06-26T03:23:23;100311.00;;;27.20
20103;BMP180;10210;52.284;9.892;2023-06-26T03:25:50;100315.00;;;27.20
20103;BMP180;10210;52.284;9.892;2023-06-26T03:28:16;100303.00;;;27.20
20103;BMP180;10210;52.284;9.892;2023-06-26T03:30:42;100305.00;;;27.20
20103;BMP180;10210;52.284;9.892;2023-06-26T03:33:08;100304.00;;;27.20
20103;BMP180;10210;52.284;9.892;2023-06-26T03:35:33;100303.00;;;27.10
20103;BMP180;10210;52.284;9.892;2023-06-26T03:37:59;100300.00;;;27.10
20103;BMP180;10210;52.284;9.892;2023-06-26T03:40:26;100300.00;;;27.20
20103;BMP180;10210;52.284;9.892;2023-06-26T03:42:52;100300.00;;;27.20
20103;BMP180;10210;52.284;9.892;2023-06-26T03:45:18;100300.00;;;27.10
20103;BMP180;10210;52.284;9.892;2023-06-26T03:47:45;100294.00;;;27.20
20103;BMP180;10210;52.284;9.892;2023-06-26T03:50:17;100297.00;;;27.20
20103;BMP180;10210;52.284;9.892;2023-06-26T03:52:43;100294.00;;;27.20
20103;BMP180;10210;52.284;9.892;2023-06-26T03:55:09;100301.00;;;27.20
20103;BMP180;10210;52.284;9.892;2023-06-26T03:57:34;100291.00;;;27.20
20103;BMP180;10210;52.284;9.892;2023-06-26T04:00:00;100296.00;;;27.20
20103;BMP180;10210;52.284;9.892;2023-06-26T04:02:26;100297.00;;;27.20
20103;BMP180;10210;52.284;9.892;2023-06-26T04:04:51;100305.00;;;27.20
20103;BMP180;10210;52.284;9.892;2023-06-26T04:07:18;100301.00;;;27.20
20103;BMP180;10210;52.284;9.892;2023-06-26T04:09:44;100307.00;;;27.20
20103;BMP180;10210;52.284;9.892;2023-06-26T04:12:10;100300.00;;;27.20
20103;BMP180;10210;52.284;9.892;2023-06-26T04:14:35;100298.00;;;27.20
20103;BMP180;10210;52.284;9.892;2023-06-26T04:17:01;100293.00;;;27.20
20103;BMP180;10210;52.284;9.892;2023-06-26T04:19:29;100294.00;;;27.20
20103;BMP180;10210;52.284;9.892;2023-06-26T04:21:55;100287.00;;;27.30
20103;BMP180;10210;52.284;9.892;2023-06-26T04:24:21;100287.00;;;27.20
20103;BMP180;10210;52.284;9.892;2023-06-26T04:26:46;100282.00;;;27.20
20103;BMP180;10210;52.284;9.892;2023-06-26T04:29:12;100286.00;;;27.20
20103;BMP180;10210;52.284;9.892;2023-06-26T04:31:39;100278.00;;;27.10
20103;BMP180;10210;52.284;9.892;2023-06-26T04:34:05;100275.00;;;27.10
20103;BMP180;10210;52.284;9.892;2023-06-26T04:36:30;100276.00;;;27.10
20103;BMP180;10210;52.284;9.892;2023-06-26T04:38:58;100283.00;;;27.10
20103;BMP180;10210;52.284;9.892;2023-06-26T04:41:24;100283.00;;;27.10
20103;BMP180;10210;52.284;9.892;2023-06-26T04:43:50;100275.00;;;27.10
20103;BMP180;10210;52.284;9.892;2023-06-26T04:46:16;100269.00;;;27.10
20103;BMP180;10210;52.284;9.892;2023-06-26T04:48:41;100269.00;;;27.10
20103;BMP180;10210;52.284;9.892;2023-06-26T04:51:08;100263.00;;;27.20
20103;BMP180;10210;52.284;9.892;2023-06-26T04:53:33;100269.00;;;27.20
20103;BMP180;10210;52.284;9.892;2023-06-26T04:55:59;100263.00;;;27.20
20103;BMP180;10210;52.284;9.892;2023-06-26T04:58:24;100258.00;;;27.20
20103;BMP180;10210;52.284;9.892;2023-06-26T05:00:50;100254.00;;;27.20
20103;BMP180;10210;52.284;9.892;2023-06-26T05:03:17;100257.00;;;27.20
20103;BMP180;10210;52.284;9.892;2023-06-26T05:05:43;100261.00;;;27.20
20103;BMP180;10210;52.284;9.892;2023-06-26T05:08:23;100256.00;;;27.20
20103;BMP180;10210;52.284;9.892;2023-06-26T05:10:49;100248.00;;;27.20
20103;BMP180;10210;52.284;9.892;2023-06-26T05:13:15;100251.00;;;27.20
20103;BMP180;10210;52.284;9.892;2023-06-26T05:15:44;100249.00;;;27.30
20103;BMP180;10210;52.284;9.892;2023-06-26T05:18:10;100247.00;;;27.30
20103;BMP180;10210;52.284;9.892;2023-06-26T05:20:36;100243.00;;;27.30
20103;BMP180;10210;52.284;9.892;2023-06-26T05:23:03;100246.00;;;27.40
20103;BMP180;10210;52.284;9.892;2023-06-26T05:25:30;100235.00;;;27.40
20103;BMP180;10210;52.284;9.892;2023-06-26T05:27:59;100238.00;;;27.40
20103;BMP180;10210;52.284;9.892;2023-06-26T05:30:26;100231.00;;;27.40
20103;BMP180;10210;52.284;9.892;2023-06-26T05:32:53;100233.00;;;27.40
20103;BMP180;10210;52.284;9.892;2023-06-26T05:35:21;100226.00;;;27.40
20103;BMP180;10210;52.284;9.892;2023-06-26T05:37:49;100232.00;;;27.40
20103;BMP180;10210;52.284;9.892;2023-06-26T05:40:19;100235.00;;;27.40
20103;BMP180;10210;52.284;9.892;2023-06-26T05:42:46;100228.00;;;27.40
20103;BMP180;10210;52.284;9.892;2023-06-26T05:45:12;100222.00;;;27.40
20103;BMP180;10210;52.284;9.892;2023-06-26T05:47:37;100213.00;;;27.50
20103;BMP180;10210;52.284;9.892;2023-06-26T05:50:04;100213.00;;;27.50
20103;BMP180;10210;52.284;9.892;2023-06-26T05:52:30;100213.00;;;27.50
20103;BMP180;10210;52.284;9.892;2023-06-26T05:54:56;100225.00;;;27.60
20103;BMP180;10210;52.284;9.892;2023-06-26T05:57:29;100218.00;;;27.60
20103;BMP180;10210;52.284;9.892;2023-06-26T05:59:56;100218.00;;;27.60
20103;BMP180;10210;52.284;9.892;2023-06-26T06:02:22;100214.00;;;27.70
20103;BMP180;10210;52.284;9.892;2023-06-26T06:04:49;100223.00;;;27.70
20103;BMP180;10210;52.284;9.892;2023-06-26T06:07:14;100220.00;;;27.80
20103;BMP180;10210;52.284;9.892;2023-06-26T06:09:40;100214.00;;;27.90
20103;BMP180;10210;52.284;9.892;2023-06-26T06:12:07;100211.00;;;27.90
20103;BMP180;10210;52.284;9.892;2023-06-26T06:14:34;100207.00;;;28.00
20103;BMP180;10210;52.284;9.892;2023-06-26T06:17:00;100209.00;;;28.10
20103;BMP180;10210;52.284;9.892;2023-06-26T06:19:26;100213.00;;;28.20
20103;BMP180;10210;52.284;9.892;2023-06-26T06:21:53;100217.00;;;28.30
20103;BMP180;10210;52.284;9.892;2023-06-26T06:24:19;100218.00;;;28.30
20103;BMP180;10210;52.284;9.892;2023-06-26T06:26:45;100210.00;;;28.40
20103;BMP180;10210;52.284;9.892;2023-06-26T06:29:11;100214.00;;;28.50
20103;BMP180;10210;52.284;9.892;2023-06-26T06:31:37;100215.00;;;28.50
20103;BMP180;10210;52.284;9.892;2023-06-26T06:34:02;100213.00;;;28.50
20103;BMP180;10210;52.284;9.892;2023-06-26T06:36:28;100211.00;;;28.60
20103;BMP180;10210;52.284;9.892;2023-06-26T06:38:54;100208.00;;;28.60
20103;BMP180;10210;52.284;9.892;2023-06-26T06:41:20;100208.00;;;28.70
20103;BMP180;10210;52.284;9.892;2023-06-26T06:43:46;100213.00;;;28.70
20103;BMP180;10210;52.284;9.892;2023-06-26T06:46:12;100207.00;;;28.80
20103;BMP180;10210;52.284;9.892;2023-06-26T06:48:38;100210.00;;;28.80
20103;BMP180;10210;52.284;9.892;2023-06-26T06:51:03;100210.00;;;29.00
20103;BMP180;10210;52.284;9.892;2023-06-26T06:53:29;100202.00;;;29.20
20103;BMP180;10210;52.284;9.892;2023-06-26T06:55:55;100214.00;;;29.60
20103;BMP180;10210;52.284;9.892;2023-06-26T06:58:21;100216.00;;;30.00
20103;BMP180;10210;52.284;9.892;2023-06-26T07:00:48;100212.00;;;30.40
20103;BMP180;10210;52.284;9.892;2023-06-26T07:03:14;100209.00;;;30.70
20103;BMP180;10210;52.284;9.892;2023-06-26T07:05:43;100207.00;;;31.10
20103;BMP180;10210;52.284;9.892;2023-06-26T07:08:09;100222.00;;;31.60
20103;BMP180;10210;52.284;9.892;2023-06-26T07:10:35;100227.00;;;32.00
20103;BMP180;10210;52.284;9.892;2023-06-26T07:13:01;100226.00;;;32.50
20103;BMP180;10210;52.284;9.892;2023-06-26T07:15:26;100227.00;;;32.90
20103;BMP180;10210;52.284;9.892;2023-06-26T07:17:52;100240.00;;;33.30
20103;BMP180;10210;52.284;9.892;2023-06-26T07:20:18;100234.00;;;33.50
20103;BMP180;10210;52.284;9.892;2023-06-26T07:22:44;100238.00;;;33.90
20103;BMP180;10210;52.284;9.892;2023-06-26T07:25:11;100227.00;;;34.20
20103;BMP180;10210;52.284;9.892;2023-06-26T07:27:41;100236.00;;;34.50
20103;BMP180;10210;52.284;9.892;2023-06-26T07:30:08;100241.00;;;34.70
20103;BMP180;10210;52.284;9.892;2023-06-26T07:32:38;100239.00;;;34.80
20103;BMP180;10210;52.284;9.892;2023-06-26T07:35:05;100236.00;;;35.10
20103;BMP180;10210;52.284;9.892;2023-06-26T07:37:31;100223.00;;;35.20
20103;BMP180;10210;52.284;9.892;2023-06-26T07:39:57;100225.00;;;35.40
20103;BMP180;10210;52.284;9.892;2023-06-26T07:42:23;100229.00;;;35.60
20103;BMP180;10210;52.284;9.892;2023-06-26T07:44:48;100229.00;;;35.80
20103;BMP180;10210;52.284;9.892;2023-06-26T07:47:15;100226.00;;;35.90
20103;BMP180;10210;52.284;9.892;2023-06-26T07:49:41;100234.00;;;36.00
20103;BMP180;10210;52.284;9.892;2023-06-26T07:52:07;100235.00;;;36.00
20103;BMP180;10210;52.284;9.892;2023-06-26T07:54:35;100238.00;;;36.10
20103;BMP180;10210;52.284;9.892;2023-06-26T07:57:04;100232.00;;;36.20
20103;BMP180;10210;52.284;9.892;2023-06-26T07:59:34;100236.00;;;36.30
20103;BMP180;10210;52.284;9.892;2023-06-26T08:02:01;100232.00;;;36.50
20103;BMP180;10210;52.284;9.892;2023-06-26T08:04:29;100244.00;;;36.50
20103;BMP180;10210;52.284;9.892;2023-06-26T08:07:02;100247.00;;;36.50
20103;BMP180;10210;52.284;9.892;2023-06-26T08:09:31;100246.00;;;36.40
20103;BMP180;10210;52.284;9.892;2023-06-26T08:11:58;100250.00;;;36.30
20103;BMP180;10210;52.284;9.892;2023-06-26T08:14:24;100247.00;;;36.30
20103;BMP180;10210;52.284;9.892;2023-06-26T08:16:50;100248.00;;;36.40
20103;BMP180;10210;52.284;9.892;2023-06-26T08:19:17;100247.00;;;36.50
20103;BMP180;10210;52.284;9.892;2023-06-26T08:21:45;100247.00;;;36.50
20103;BMP180;10210;52.284;9.892;2023-06-26T08:24:12;100249.00;;;36.60
20103;BMP180;10210;52.284;9.892;2023-06-26T08:26:39;100233.00;;;36.70
20103;BMP180;10210;52.284;9.892;2023-06-26T08:29:05;100235.00;;;36.80
20103;BMP180;10210;52.284;9.892;2023-06-26T08:31:37;100225.00;;;36.70
20103;BMP180;10210;52.284;9.892;2023-06-26T08:34:04;100235.00;;;36.80
20103;BMP180;10210;52.284;9.892;2023-06-26T08:36:31;100231.00;;;36.80
20103;BMP180;10210;52.284;9.892;2023-06-26T08:39:01;100227.00;;;36.80
20103;BMP180;10210;52.284;9.892;2023-06-26T08:41:27;100229.00;;;36.80
20103;BMP180;10210;52.284;9.892;2023-06-26T08:43:53;100229.00;;;36.80
20103;BMP180;10210;52.284;9.892;2023-06-26T08:46:19;100226.00;;;36.80
20103;BMP180;10210;52.284;9.892;2023-06-26T08:48:55;100227.00;;;36.90
20103;BMP180;10210;52.284;9.892;2023-06-26T08:51:24;100219.00;;;36.90
20103;BMP180;10210;52.284;9.892;2023-06-26T08:54:00;100224.00;;;36.90
20103;BMP180;10210;52.284;9.892;2023-06-26T08:56:37;100232.00;;;36.80
20103;BMP180;10210;52.284;9.892;2023-06-26T08:59:08;100234.00;;;36.90
20103;BMP180;10210;52.284;9.892;2023-06-26T09:01:36;100248.00;;;36.90
20103;BMP180;10210;52.284;9.892;2023-06-26T09:04:03;100264.00;;;36.90
20103;BMP180;10210;52.284;9.892;2023-06-26T09:06:29;100259.00;;;36.90
20103;BMP180;10210;52.284;9.892;2023-06-26T09:08:55;100257.00;;;36.80
20103;BMP180;10210;52.284;9.892;2023-06-26T09:11:21;100262.00;;;36.60
20103;BMP180;10210;52.284;9.892;2023-06-26T09:13:48;100262.00;;;36.50
20103;BMP180;10210;52.284;9.892;2023-06-26T09:16:14;100265.00;;;36.40
20103;BMP180;10210;52.284;9.892;2023-06-26T09:18:41;100264.00;;;36.30
20103;BMP180;10210;52.284;9.892;2023-06-26T09:21:11;100271.00;;;36.20
20103;BMP180;10210;52.284;9.892;2023-06-26T09:23:39;100261.00;;;36.20
20103;BMP180;10210;52.284;9.892;2023-06-26T09:26:06;100261.00;;;36.20
20103;BMP180;10210;52.284;9.892;2023-06-26T09:28:36;100261.00;;;36.10
20103;BMP180;10210;52.284;9.892;2023-06-26T09:31:07;100255.00;;;36.10
20103;BMP180;10210;52.284;9.892;2023-06-26T09:33:35;100260.00;;;36.20
20103;BMP180;10210;52.284;9.892;2023-06-26T09:36:09;100261.00;;;36.10
20103;BMP180;10210;52.284;9.892;2023-06-26T09:38:37;100259.00;;;36.00
20103;BMP180;10210;52.284;9.892;2023-06-26T09:41:03;100261.00;;;35.90
20103;BMP180;10210;52.284;9.892;2023-06-26T09:43:29;100275.00;;;35.80
20103;BMP180;10210;52.284;9.892;2023-06-26T09:45:56;100272.00;;;35.60
20103;BMP180;10210;52.284;9.892;2023-06-26T09:48:22;100275.00;;;35.50
20103;BMP180;10210;52.284;9.892;2023-06-26T09:50:48;100267.00;;;35.40
20103;BMP180;10210;52.284;9.892;2023-06-26T09:53:15;100275.00;;;35.30
20103;BMP180;10210;52.284;9.892;2023-06-26T09:55:44;100287.00;;;35.10
20103;BMP180;10210;52.284;9.892;2023-06-26T09:58:13;100287.00;;;34.90
20103;BMP180;10210;52.284;9.892;2023-06-26T10:00:43;100292.00;;;34.80
20103;BMP180;10210;52.284;9.892;2023-06-26T10:03:10;100288.00;;;34.60
20103;BMP180;10210;52.284;9.892;2023-06-26T10:05:39;100309.00;;;34.40
20103;BMP180;10210;52.284;9.892;2023-06-26T10:08:05;100315.00;;;34.20
20103;BMP180;10210;52.284;9.892;2023-06-26T10:10:35;100313.00;;;34.00
20103;BMP180;10210;52.284;9.892;2023-06-26T10:13:15;100325.00;;;33.70
20103;BMP180;10210;52.284;9.892;2023-06-26T10:15:45;100336.00;;;33.60
20103;BMP180;10210;52.284;9.892;2023-06-26T10:18:13;100334.00;;;33.50
20103;BMP180;10210;52.284;9.892;2023-06-26T10:20:47;100332.00;;;33.40
20103;BMP180;10210;52.284;9.892;2023-06-26T10:23:15;100324.00;;;33.40
20103;BMP180;10210;52.284;9.892;2023-06-26T10:25:46;100335.00;;;33.40
20103;BMP180;10210;52.284;9.892;2023-06-26T10:28:15;100348.00;;;33.30
20103;BMP180;10210;52.284;9.892;2023-06-26T10:30:44;100362.00;;;33.20
20103;BMP180;10210;52.284;9.892;2023-06-26T10:33:13;100359.00;;;33.10
20103;BMP180;10210;52.284;9.892;2023-06-26T10:35:46;100352.00;;;32.90
20103;BMP180;10210;52.284;9.892;2023-06-26T10:38:12;100355.00;;;32.80
20103;BMP180;10210;52.284;9.892;2023-06-26T10:40:46;100348.00;;;32.70
20103;BMP180;10210;52.284;9.892;2023-06-26T10:43:15;100363.00;;;32.80
20103;BMP180;10210;52.284;9.892;2023-06-26T10:45:49;100372.00;;;32.60
20103;BMP180;10210;52.284;9.892;2023-06-26T10:48:18;100376.00;;;32.40
20103;BMP180;10210;52.284;9.892;2023-06-26T10:50:47;100386.00;;;32.10
20103;BMP180;10210;52.284;9.892;2023-06-26T10:55:59;100397.00;;;31.60
20103;BMP180;10210;52.284;9.892;2023-06-26T11:01:22;100409.00;;;31.20
20103;BMP180;10210;52.284;9.892;2023-06-26T11:04:09;100418.00;;;31.00
20103;BMP180;10210;52.284;9.892;2023-06-26T11:06:38;100418.00;;;30.90
20103;BMP180;10210;52.284;9.892;2023-06-26T11:14:26;100403.00;;;30.70
20103;BMP180;10210;52.284;9.892;2023-06-26T11:16:59;100405.00;;;30.70
20103;BMP180;10210;52.284;9.892;2023-06-26T11:19:27;100395.00;;;30.70
20103;BMP180;10210;52.284;9.892;2023-06-26T11:21:59;100403.00;;;30.70
20103;BMP180;10210;52.284;9.892;2023-06-26T11:24:26;100402.00;;;30.70
20103;BMP180;10210;52.284;9.892;2023-06-26T11:26:53;100402.00;;;30.70
20103;BMP180;10210;52.284;9.892;2023-06-26T11:29:20;100406.00;;;30.80
20103;BMP180;10210;52.284;9.892;2023-06-26T11:31:46;100405.00;;;30.80
20103;BMP180;10210;52.284;9.892;2023-06-26T11:34:13;100404.00;;;30.80
20103;BMP180;10210;52.284;9.892;2023-06-26T11:36:42;100402.00;;;30.80
20103;BMP180;10210;52.284;9.892;2023-06-26T11:39:10;100411.00;;;30.80
20103;BMP180;10210;52.284;9.892;2023-06-26T11:41:38;100416.00;;;30.80
20103;BMP180;10210;52.284;9.892;2023-06-26T11:44:09;100409.00;;;30.80
20103;BMP180;10210;52.284;9.892;2023-06-26T11:46:37;100414.00;;;30.80
20103;BMP180;10210;52.284;9.892;2023-06-26T11:49:04;100427.00;;;30.90
20103;BMP180;10210;52.284;9.892;2023-06-26T11:51:30;100419.00;;;30.90
20103;BMP180;10210;52.284;9.892;2023-06-26T11:53:56;100424.00;;;30.90
20103;BMP180;10210;52.284;9.892;2023-06-26T11:56:22;100430.00;;;31.00
20103;BMP180;10210;52.284;9.892;2023-06-26T11:59:03;100426.00;;;31.00
20103;BMP180;10210;52.284;9.892;2023-06-26T12:01:39;100423.00;;;31.10
20103;BMP180;10210;52.284;9.892;2023-06-26T12:04:08;100430.00;;;31.20
20103;BMP180;10210;52.284;9.892;2023-06-26T12:06:40;100424.00;;;31.30
20103;BMP180;10210;52.284;9.892;2023-06-26T12:09:11;100427.00;;;31.30
20103;BMP180;10210;52.284;9.892;2023-06-26T12:11:44;100421.00;;;31.40
20103;BMP180;10210;52.284;9.892;2023-06-26T12:14:13;100432.00;;;31.30
20103;BMP180;10210;52.284;9.892;2023-06-26T12:16:39;100436.00;;;31.30
20103;BMP180;10210;52.284;9.892;2023-06-26T12:19:08;100442.00;;;31.20
20103;BMP180;10210;52.284;9.892;2023-06-26T12:24:06;100446.00;;;31.00
20103;BMP180;10210;52.284;9.892;2023-06-26T12:26:32;100435.00;;;31.00
20103;BMP180;10210;52.284;9.892;2023-06-26T12:29:07;100444.00;;;31.00
20103;BMP180;10210;52.284;9.892;2023-06-26T12:31:34;100438.00;;;31.00
20103;BMP180;10210;52.284;9.892;2023-06-26T12:34:02;100447.00;;;31.10
20103;BMP180;10210;52.284;9.892;2023-06-26T12:36:50;100445.00;;;31.00
20103;BMP180;10210;52.284;9.892;2023-06-26T12:39:21;100444.00;;;31.10
20103;BMP180;10210;52.284;9.892;2023-06-26T12:41:56;100442.00;;;31.10
20103;BMP180;10210;52.284;9.892;2023-06-26T12:44:28;100446.00;;;31.20
20103;BMP180;10210;52.284;9.892;2023-06-26T12:46:58;100457.00;;;31.20
20103;BMP180;10210;52.284;9.892;2023-06-26T12:49:38;100457.00;;;31.20
20103;BMP180;10210;52.284;9.892;2023-06-26T12:52:15;100465.00;;;31.30
20103;BMP180;10210;52.284;9.892;2023-06-26T12:54:44;100457.00;;;31.30
20103;BMP180;10210;52.284;9.892;2023-06-26T12:57:10;100461.00;;;31.30
20103;BMP180;10210;52.284;9.892;2023-06-26T12:59:37;100457.00;;;31.30
20103;BMP180;10210;52.284;9.892;2023-06-26T13:02:04;100451.00;;;31.40
20103;BMP180;10210;52.284;9.892;2023-06-26T13:04:30;100444.00;;;31.40
20103;BMP180;10210;52.284;9.892;2023-06-26T13:06:56;100438.00;;;31.40
20103;BMP180;10210;52.284;9.892;2023-06-26T13:09:24;100433.00;;;31.40
20103;BMP180;10210;52.284;9.892;2023-06-26T13:11:51;100443.00;;;31.40
20103;BMP180;10210;52.284;9.892;2023-06-26T13:14:16;100429.00;;;31.50
20103;BMP180;10210;52.284;9.892;2023-06-26T13:16:42;100434.00;;;31.50
20103;BMP180;10210;52.284;9.892;2023-06-26T13:19:08;100430.00;;;31.60
20103;BMP180;10210;52.284;9.892;2023-06-26T13:21:34;100434.00;;;31.60
20103;BMP180;10210;52.284;9.892;2023-06-26T13:24:01;100427.00;;;31.60
20103;BMP180;10210;52.284;9.892;2023-06-26T13:26:27;100433.00;;;31.70
20103;BMP180;10210;52.284;9.892;2023-06-26T13:28:54;100441.00;;;31.80
20103;BMP180;10210;52.284;9.892;2023-06-26T13:31:20;100434.00;;;31.80
20103;BMP180;10210;52.284;9.892;2023-06-26T13:33:47;100431.00;;;31.80
20103;BMP180;10210;52.284;9.892;2023-06-26T13:36:18;100436.00;;;31.80
20103;BMP180;10210;52.284;9.892;2023-06-26T13:38:45;100448.00;;;31.90
20103;BMP180;10210;52.284;9.892;2023-06-26T13:41:12;100439.00;;;31.90
20103;BMP180;10210;52.284;9.892;2023-06-26T13:43:38;100442.00;;;31.90
20103;BMP180;10210;52.284;9.892;2023-06-26T13:46:03;100429.00;;;31.80
20103;BMP180;10210;52.284;9.892;2023-06-26T13:48:30;100427.00;;;31.80
20103;BMP180;10210;52.284;9.892;2023-06-26T13:50:56;100430.00;;;31.80
20103;BMP180;10210;52.284;9.892;2023-06-26T13:53:22;100429.00;;;31.80
20103;BMP180;10210;52.284;9.892;2023-06-26T13:55:48;100436.00;;;31.80
20103;BMP180;10210;52.284;9.892;2023-06-26T13:58:14;100429.00;;;31.80
20103;BMP180;10210;52.284;9.892;2023-06-26T14:00:40;100424.00;;;31.80
20103;BMP180;10210;52.284;9.892;2023-06-26T14:03:07;100426.00;;;31.80
20103;BMP180;10210;52.284;9.892;2023-06-26T14:05:34;100440.00;;;31.80
20103;BMP180;10210;52.284;9.892;2023-06-26T14:08:03;100440.00;;;31.80
20103;BMP180;10210;52.284;9.892;2023-06-26T14:10:30;100436.00;;;31.80
20103;BMP180;10210;52.284;9.892;2023-06-26T14:12:56;100428.00;;;31.90
20103;BMP180;10210;52.284;9.892;2023-06-26T14:15:22;100439.00;;;31.90